Stella Polaris — PEBD — position and weather

sailwx.info

Track history (hours):
 
Tides and Currents Weather Stations Pressure Air Temp Water Temp Dewpoint Dewpoint Depression Visibility Wind Speed Wind Dir Waves Ship Positions

Stella Polaris

Last reported at 2017-Aug-18 02:28 UTC. Time now 2017-Aug-20 01:54 UTC.
Position N 45°29' W 073°31'.

Length 117 m; draft 6.6 m.

Type: Ship (hazmat cat A). MMSI: 245911000.

Date/timePositionNaut miles runAvg speedWind from/ knotsBaromVisibWave heightAir tempDewpointWater temp
2017-Aug-18 02:28N 45°29' W 073°31'2 4.2
2017-Aug-18 01:54N 45°27' W 073°30'3 6.9
2017-Aug-18 01:30N 45°25' W 073°32'2 2.6
2017-Aug-18 00:44N 45°24' W 073°34'1 3.0
2017-Aug-18 00:30N 45°24' W 073°35'3 6.3
2017-Aug-18 00:00N 45°25' W 073°40'4 7.4
2017-Aug-17 23:30N 45°24' W 073°45'611.4
2017-Aug-17 22:59N 45°21' W 073°52'3 6.3
2017-Aug-17 22:30N 45°19' W 073°55'1 1.5
2017-Aug-17 22:00N 45°18' W 073°56'0 0.5
2017-Aug-17 21:30N 45°18' W 073°56'1 1.7
2017-Aug-17 21:00N 45°17' W 073°56'4 6.5
2017-Aug-17 20:19N 45°14' W 074°00'  
2017-Aug-10 00:36N 45°13' W 074°02'110.5
2017-Aug-10 00:30N 45°14' W 074°00'510.5
2017-Aug-10 00:00N 45°18' W 073°56'0 0.9
2017-Aug-09 23:30N 45°18' W 073°56'1 1.4
2017-Aug-09 22:59N 45°19' W 073°55'1 3.0
2017-Aug-09 22:30N 45°20' W 073°54'611.4
2017-Aug-09 22:00N 45°24' W 073°48'510.0
2017-Aug-09 21:30N 45°25' W 073°41'4 6.4
2017-Aug-09 20:56N 45°24' W 073°36'1 2.7
2017-Aug-09 20:30N 45°24' W 073°34'1 1.1
2017-Aug-09 19:50N 45°24' W 073°33'1 2.5
2017-Aug-09 19:23N 45°25' W 073°31'2 6.2
2017-Aug-09 18:59N 45°27' W 073°30'  
Track history (hours):
 
Tides and Currents Weather Stations Pressure Air Temp Water Temp Dewpoint Dewpoint Depression Visibility Wind Speed Wind Dir Waves Ship Positions

Stella Polaris

Last reported at 2017-Aug-18 02:28 UTC. Time now 2017-Aug-20 01:54 UTC.
Position N 45°29' W 073°31'.

Length 117 m; draft 6.6 m.

Type: Ship (hazmat cat A). MMSI: 245911000.

Date/timePositionNaut miles runAvg speedWind from/ knotsBaromVisibWave heightAir tempDewpointWater temp
2017-Aug-18 02:28N 45°29' W 073°31'2 4.2
2017-Aug-18 01:54N 45°27' W 073°30'3 6.9
2017-Aug-18 01:30N 45°25' W 073°32'2 2.6
2017-Aug-18 00:44N 45°24' W 073°34'1 3.0
2017-Aug-18 00:30N 45°24' W 073°35'3 6.3
2017-Aug-18 00:00N 45°25' W 073°40'4 7.4
2017-Aug-17 23:30N 45°24' W 073°45'611.4
2017-Aug-17 22:59N 45°21' W 073°52'3 6.3
2017-Aug-17 22:30N 45°19' W 073°55'1 1.5
2017-Aug-17 22:00N 45°18' W 073°56'0 0.5
2017-Aug-17 21:30N 45°18' W 073°56'1 1.7
2017-Aug-17 21:00N 45°17' W 073°56'4 6.5
2017-Aug-17 20:19N 45°14' W 074°00'  
2017-Aug-10 00:36N 45°13' W 074°02'110.5
2017-Aug-10 00:30N 45°14' W 074°00'510.5
2017-Aug-10 00:00N 45°18' W 073°56'0 0.9
2017-Aug-09 23:30N 45°18' W 073°56'1 1.4
2017-Aug-09 22:59N 45°19' W 073°55'1 3.0
2017-Aug-09 22:30N 45°20' W 073°54'611.4
2017-Aug-09 22:00N 45°24' W 073°48'510.0
2017-Aug-09 21:30N 45°25' W 073°41'4 6.4
2017-Aug-09 20:56N 45°24' W 073°36'1 2.7
2017-Aug-09 20:30N 45°24' W 073°34'1 1.1
2017-Aug-09 19:50N 45°24' W 073°33'1 2.5
2017-Aug-09 19:23N 45°25' W 073°31'2 6.2
2017-Aug-09 18:59N 45°27' W 073°30'  

Dump ship's entire track history